Ana Sayfa
METAR-TAF:

METAR-TAF

Havaalanları :

Manta, Ekvador

Enlem: 00-57S, Boylam: 080-41W, yükseklik: 13 m

Güncel hava durumu gözlemi

Rapor saat 17:00 UTC de 31 dakika önce yapıldı.
Rüzgar batıdan 5 kt
Sıcaklık 26°C
Nem 84%
Basınç 1014 hPa
Görüş mesafesi 10 km veya daha fazla
2000 ft yükseklikte çok bulutlu

METAR: SEMT 141700Z 27005KT 9999 OVC020 26/23 Q1014

Saat: 12:31 (17:31 UTC)

Tahmin

Rapor saat 09:30 UTC de 8 saat ve 1 dakika önce yapıldı.
Ayın 14'si saat 12 UTC'den ayın 15'si saat 12 UTC'ye kadar geçerli Tahmin
Rüzgar güney/güneybatıdan 10 kt
Görüş mesafesi 10 km veya daha fazla
2000 ft yükseklikte çok bulutlu
Dönüşüyor
ayın 14'si saat 16 UTC'den ayın 14'si saat 18 UTC'ye kadar
2300 ft yükseklikte parçalı bulutlu
Dönüşüyor
ayın 14'si saat 22 UTC'den ayın 14'si saat 23 UTC'ye kadar
Rüzgar güneybatıdan 6 kt
1600 ft yükseklikte çok bulutlu

TAF: SEMT 140930Z 1412/1512 21010KT 9999 OVC020 BECMG 1416/1418 SCT023 BECMG 1422/1423 22006KT OVC016 TX29/1420Z TN22/1510Z

4.000'den fazla havaalanı için hava durumu gözlemleri ve tahminleri (METAR ve TAF raporları).

Kullanılabilir istasyonlar harita üzerinde sarı ve kırmızı noktalarla gösterilir.

İstasyonun adını görmek için fareyi noktanın üzerinde gezdirin.

Sonrasında hava gözlem ve tahminlerini görmek için tıklayın.

Haritayı değiştirmek için: yaklaştırmak için siyah artı işaretli yeşil düğmeye ve uzaklaştırmak için de eksi işaretli düğmeye hızla tıklayın; bitişik haritalar için yeşil okları kullanın.


METAR-TAF: